sensor_id;sensor_type;location;lat;lon;timestamp;pressure;altitude;pressure_sealevel;temperature;humidity
62025;BME280;47978;49.118;12.146;2023-05-08T00:03:05;97793.75;;;11.09;74.44
62025;BME280;47978;49.118;12.146;2023-05-08T00:07:06;97800.13;;;11.09;75.62
62025;BME280;47978;49.118;12.146;2023-05-08T00:11:08;97813.66;;;11.11;74.75
62025;BME280;47978;49.118;12.146;2023-05-08T00:15:10;97811.97;;;10.96;74.76
62025;BME280;47978;49.118;12.146;2023-05-08T00:19:12;97817.41;;;11.01;75.20
62025;BME280;47978;49.118;12.146;2023-05-08T00:23:14;97818.41;;;10.91;75.08
62025;BME280;47978;49.118;12.146;2023-05-08T00:27:15;97812.53;;;10.93;75.28
62025;BME280;47978;49.118;12.146;2023-05-08T00:31:17;97829.06;;;10.98;74.94
62025;BME280;47978;49.118;12.146;2023-05-08T00:35:20;97822.44;;;10.80;75.65
62025;BME280;47978;49.118;12.146;2023-05-08T00:39:22;97830.00;;;10.74;76.35
62025;BME280;47978;49.118;12.146;2023-05-08T00:43:23;97835.72;;;10.40;77.10
62025;BME280;47978;49.118;12.146;2023-05-08T00:47:25;97846.25;;;10.38;77.74
62025;BME280;47978;49.118;12.146;2023-05-08T00:51:28;97842.38;;;10.39;77.34
62025;BME280;47978;49.118;12.146;2023-05-08T00:55:30;97846.88;;;10.30;77.51
62025;BME280;47978;49.118;12.146;2023-05-08T00:59:32;97840.06;;;10.22;77.90
62025;BME280;47978;49.118;12.146;2023-05-08T01:03:35;97858.00;;;10.25;77.99
62025;BME280;47978;49.118;12.146;2023-05-08T01:07:40;97853.41;;;10.15;78.54
62025;BME280;47978;49.118;12.146;2023-05-08T01:11:44;97852.34;;;10.11;78.12
62025;BME280;47978;49.118;12.146;2023-05-08T01:15:52;97853.28;;;10.25;77.24
62025;BME280;47978;49.118;12.146;2023-05-08T01:20:04;97860.09;;;10.09;78.34
62025;BME280;47978;49.118;12.146;2023-05-08T01:24:41;97866.59;;;9.99;78.89
62025;BME280;47978;49.118;12.146;2023-05-08T01:33:26;97862.28;;;9.88;79.10
62025;BME280;47978;49.118;12.146;2023-05-08T01:37:37;97872.75;;;9.91;78.73
62025;BME280;47978;49.118;12.146;2023-05-08T01:41:43;97873.47;;;9.73;79.67
62025;BME280;47978;49.118;12.146;2023-05-08T01:45:48;97878.09;;;9.82;79.26
62025;BME280;47978;49.118;12.146;2023-05-08T01:49:59;97882.66;;;9.68;80.10
62025;BME280;47978;49.118;12.146;2023-05-08T01:54:05;97887.44;;;9.57;79.81
62025;BME280;47978;49.118;12.146;2023-05-08T01:58:11;97883.78;;;9.62;80.34
62025;BME280;47978;49.118;12.146;2023-05-08T02:02:13;97889.22;;;9.43;80.33
62025;BME280;47978;49.118;12.146;2023-05-08T02:06:21;97888.44;;;9.37;81.35
62025;BME280;47978;49.118;12.146;2023-05-08T02:10:24;97892.19;;;9.52;80.80
62025;BME280;47978;49.118;12.146;2023-05-08T02:14:27;97893.78;;;9.23;80.95
62025;BME280;47978;49.118;12.146;2023-05-08T02:18:30;97888.84;;;9.20;81.28
62025;BME280;47978;49.118;12.146;2023-05-08T02:22:34;97899.22;;;9.34;81.17
62025;BME280;47978;49.118;12.146;2023-05-08T02:26:38;97900.72;;;9.16;81.13
62025;BME280;47978;49.118;12.146;2023-05-08T02:30:42;97908.44;;;9.19;81.84
62025;BME280;47978;49.118;12.146;2023-05-08T02:34:46;97903.25;;;9.12;80.93
62025;BME280;47978;49.118;12.146;2023-05-08T02:39:04;97897.97;;;9.16;81.27
62025;BME280;47978;49.118;12.146;2023-05-08T02:43:08;97901.44;;;8.92;82.50
62025;BME280;47978;49.118;12.146;2023-05-08T02:47:19;97909.13;;;8.95;83.73
62025;BME280;47978;49.118;12.146;2023-05-08T02:51:24;97909.66;;;9.03;82.66
62025;BME280;47978;49.118;12.146;2023-05-08T02:55:32;97916.19;;;9.17;81.23
62025;BME280;47978;49.118;12.146;2023-05-08T02:59:39;97919.75;;;9.22;81.23
62025;BME280;47978;49.118;12.146;2023-05-08T03:03:45;97917.16;;;8.97;83.00
62025;BME280;47978;49.118;12.146;2023-05-08T03:07:53;97920.50;;;8.89;82.66
62025;BME280;47978;49.118;12.146;2023-05-08T03:12:00;97931.56;;;8.84;82.89
62025;BME280;47978;49.118;12.146;2023-05-08T03:16:05;97934.16;;;9.09;82.29
62025;BME280;47978;49.118;12.146;2023-05-08T03:20:13;97936.50;;;8.87;82.75
62025;BME280;47978;49.118;12.146;2023-05-08T03:24:17;97937.44;;;8.62;83.92
62025;BME280;47978;49.118;12.146;2023-05-08T03:28:22;97926.81;;;8.94;83.76
62025;BME280;47978;49.118;12.146;2023-05-08T03:32:25;97937.09;;;8.78;82.44
62025;BME280;47978;49.118;12.146;2023-05-08T03:36:29;97929.94;;;8.77;82.89
62025;BME280;47978;49.118;12.146;2023-05-08T03:40:32;97925.25;;;8.73;83.78
62025;BME280;47978;49.118;12.146;2023-05-08T03:44:35;97926.19;;;8.48;84.30
62025;BME280;47978;49.118;12.146;2023-05-08T03:48:37;97926.25;;;8.43;84.25
62025;BME280;47978;49.118;12.146;2023-05-08T03:52:40;97938.78;;;8.69;83.50
62025;BME280;47978;49.118;12.146;2023-05-08T03:56:42;97944.63;;;8.63;83.86
62025;BME280;47978;49.118;12.146;2023-05-08T04:00:55;97954.50;;;8.69;83.79
62025;BME280;47978;49.118;12.146;2023-05-08T04:05:01;97954.84;;;8.52;84.80
62025;BME280;47978;49.118;12.146;2023-05-08T04:09:10;97958.59;;;8.76;83.87
62025;BME280;47978;49.118;12.146;2023-05-08T04:13:15;97966.25;;;8.90;83.91
62025;BME280;47978;49.118;12.146;2023-05-08T04:17:40;97965.22;;;8.75;84.16
62025;BME280;47978;49.118;12.146;2023-05-08T04:21:43;97974.13;;;8.57;84.04
62025;BME280;47978;49.118;12.146;2023-05-08T04:25:46;97969.22;;;8.39;84.80
62025;BME280;47978;49.118;12.146;2023-05-08T04:29:48;97966.09;;;8.71;84.59
62025;BME280;47978;49.118;12.146;2023-05-08T04:33:51;97973.47;;;8.86;84.23
62025;BME280;47978;49.118;12.146;2023-05-08T04:37:54;97976.22;;;8.86;83.76
62025;BME280;47978;49.118;12.146;2023-05-08T04:41:56;97980.84;;;9.00;83.80
62025;BME280;47978;49.118;12.146;2023-05-08T04:45:57;97991.03;;;9.00;83.98
62025;BME280;47978;49.118;12.146;2023-05-08T04:50:00;97988.63;;;8.88;83.74
62025;BME280;47978;49.118;12.146;2023-05-08T04:54:03;97990.94;;;9.15;81.90
62025;BME280;47978;49.118;12.146;2023-05-08T04:58:05;97996.69;;;9.24;82.16
62025;BME280;47978;49.118;12.146;2023-05-08T05:02:07;98003.38;;;9.57;81.22
62025;BME280;47978;49.118;12.146;2023-05-08T05:06:10;98005.28;;;9.62;81.12
62025;BME280;47978;49.118;12.146;2023-05-08T05:10:11;98016.09;;;9.53;80.76
62025;BME280;47978;49.118;12.146;2023-05-08T05:14:13;98007.00;;;9.53;80.73
62025;BME280;47978;49.118;12.146;2023-05-08T05:18:14;98012.59;;;9.42;80.93
62025;BME280;47978;49.118;12.146;2023-05-08T05:22:17;98000.59;;;10.31;77.91
62025;BME280;47978;49.118;12.146;2023-05-08T05:26:19;98004.84;;;9.84;79.17
62025;BME280;47978;49.118;12.146;2023-05-08T05:30:20;98004.00;;;10.47;77.05
62025;BME280;47978;49.118;12.146;2023-05-08T05:34:22;98011.78;;;11.36;73.84
62025;BME280;47978;49.118;12.146;2023-05-08T05:38:25;98003.53;;;11.49;72.08
62025;BME280;47978;49.118;12.146;2023-05-08T05:42:27;98009.66;;;11.28;73.68
62025;BME280;47978;49.118;12.146;2023-05-08T05:46:28;98007.97;;;12.21;70.09
62025;BME280;47978;49.118;12.146;2023-05-08T05:50:30;98018.88;;;11.42;73.08
62025;BME280;47978;49.118;12.146;2023-05-08T05:54:33;98014.31;;;11.89;71.31
62025;BME280;47978;49.118;12.146;2023-05-08T05:58:34;98020.13;;;12.06;70.55
62025;BME280;47978;49.118;12.146;2023-05-08T06:02:36;98019.09;;;13.45;66.45
62025;BME280;47978;49.118;12.146;2023-05-08T06:06:38;98015.56;;;13.03;67.17
62025;BME280;47978;49.118;12.146;2023-05-08T06:10:40;98023.16;;;14.43;63.20
62025;BME280;47978;49.118;12.146;2023-05-08T06:14:42;98016.69;;;14.34;62.40
62025;BME280;47978;49.118;12.146;2023-05-08T06:18:43;98016.44;;;13.77;63.80
62025;BME280;47978;49.118;12.146;2023-05-08T06:22:45;98018.84;;;13.69;64.50
62025;BME280;47978;49.118;12.146;2023-05-08T06:26:48;98020.78;;;14.90;62.30
62025;BME280;47978;49.118;12.146;2023-05-08T06:30:49;98017.41;;;14.71;62.34
62025;BME280;47978;49.118;12.146;2023-05-08T06:34:51;98020.50;;;14.60;63.45
62025;BME280;47978;49.118;12.146;2023-05-08T06:38:53;98026.25;;;16.22;57.41
62025;BME280;47978;49.118;12.146;2023-05-08T06:42:55;98023.41;;;15.44;59.52
62025;BME280;47978;49.118;12.146;2023-05-08T06:46:57;98024.22;;;14.56;62.63
62025;BME280;47978;49.118;12.146;2023-05-08T06:50:59;98018.94;;;14.23;64.03
62025;BME280;47978;49.118;12.146;2023-05-08T06:55:00;98025.31;;;14.01;64.73
62025;BME280;47978;49.118;12.146;2023-05-08T06:59:03;98017.28;;;15.24;62.45
62025;BME280;47978;49.118;12.146;2023-05-08T07:03:09;98012.53;;;15.25;60.21
62025;BME280;47978;49.118;12.146;2023-05-08T07:07:10;98023.81;;;14.40;63.44
62025;BME280;47978;49.118;12.146;2023-05-08T07:11:12;98016.44;;;14.67;63.15
62025;BME280;47978;49.118;12.146;2023-05-08T07:15:15;98022.34;;;16.14;60.03
62025;BME280;47978;49.118;12.146;2023-05-08T07:19:26;98021.19;;;16.07;58.45
62025;BME280;47978;49.118;12.146;2023-05-08T07:23:27;98020.19;;;15.68;59.97
62025;BME280;47978;49.118;12.146;2023-05-08T07:27:29;98019.00;;;17.03;57.00
62025;BME280;47978;49.118;12.146;2023-05-08T07:31:32;98014.94;;;17.21;57.14
62025;BME280;47978;49.118;12.146;2023-05-08T07:35:33;98026.59;;;16.12;58.69
62025;BME280;47978;49.118;12.146;2023-05-08T07:39:35;98018.78;;;17.17;56.95
62025;BME280;47978;49.118;12.146;2023-05-08T07:43:36;98031.03;;;16.13;57.96
62025;BME280;47978;49.118;12.146;2023-05-08T07:47:47;98022.38;;;17.17;55.32
62025;BME280;47978;49.118;12.146;2023-05-08T07:51:49;98027.72;;;15.76;59.16
62025;BME280;47978;49.118;12.146;2023-05-08T07:55:50;98024.81;;;18.53;53.13
62025;BME280;47978;49.118;12.146;2023-05-08T07:59:52;98024.19;;;18.81;51.78
62025;BME280;47978;49.118;12.146;2023-05-08T08:03:55;98022.53;;;17.71;54.61
62025;BME280;47978;49.118;12.146;2023-05-08T08:07:57;98020.94;;;18.46;52.35
62025;BME280;47978;49.118;12.146;2023-05-08T08:11:59;98018.69;;;17.55;53.28
62025;BME280;47978;49.118;12.146;2023-05-08T08:16:00;98019.13;;;19.20;50.59
62025;BME280;47978;49.118;12.146;2023-05-08T08:20:04;98019.44;;;18.81;50.17
62025;BME280;47978;49.118;12.146;2023-05-08T08:24:06;98020.63;;;18.59;49.80
62025;BME280;47978;49.118;12.146;2023-05-08T08:28:08;98023.03;;;17.44;52.86
62025;BME280;47978;49.118;12.146;2023-05-08T08:32:09;98015.63;;;18.65;49.96
62025;BME280;47978;49.118;12.146;2023-05-08T08:36:15;98019.34;;;18.90;49.46
62025;BME280;47978;49.118;12.146;2023-05-08T08:40:17;98013.84;;;18.48;49.79
62025;BME280;47978;49.118;12.146;2023-05-08T08:44:18;98014.34;;;17.96;50.48
62025;BME280;47978;49.118;12.146;2023-05-08T08:48:20;98013.69;;;18.78;49.29
62025;BME280;47978;49.118;12.146;2023-05-08T08:52:30;98011.75;;;19.03;48.83
62025;BME280;47978;49.118;12.146;2023-05-08T08:56:33;98015.28;;;18.66;49.71
62025;BME280;47978;49.118;12.146;2023-05-08T09:00:36;98011.91;;;18.07;50.08
62025;BME280;47978;49.118;12.146;2023-05-08T09:04:38;98011.41;;;18.59;51.27
62025;BME280;47978;49.118;12.146;2023-05-08T09:08:41;98012.28;;;18.38;50.90
62025;BME280;47978;49.118;12.146;2023-05-08T09:12:43;98009.91;;;18.61;48.96
62025;BME280;47978;49.118;12.146;2023-05-08T09:16:44;98012.00;;;18.19;50.93
62025;BME280;47978;49.118;12.146;2023-05-08T09:20:46;98012.06;;;17.89;51.42
62025;BME280;47978;49.118;12.146;2023-05-08T09:24:57;98014.59;;;18.03;56.55
62025;BME280;47978;49.118;12.146;2023-05-08T09:29:10;98011.78;;;17.31;55.09
62025;BME280;47978;49.118;12.146;2023-05-08T09:33:12;98009.31;;;18.23;51.52
62025;BME280;47978;49.118;12.146;2023-05-08T09:37:14;98008.50;;;17.59;52.00
62025;BME280;47978;49.118;12.146;2023-05-08T09:41:16;98008.31;;;17.05;54.23
62025;BME280;47978;49.118;12.146;2023-05-08T09:45:28;98005.44;;;17.22;52.44
62025;BME280;47978;49.118;12.146;2023-05-08T09:49:30;98000.38;;;17.66;53.83
62025;BME280;47978;49.118;12.146;2023-05-08T09:53:32;97998.00;;;17.56;52.88
62025;BME280;47978;49.118;12.146;2023-05-08T09:57:36;98003.78;;;17.93;55.11
62025;BME280;47978;49.118;12.146;2023-05-08T10:01:38;98005.03;;;18.04;52.63
62025;BME280;47978;49.118;12.146;2023-05-08T10:05:39;98003.41;;;18.36;52.25
62025;BME280;47978;49.118;12.146;2023-05-08T10:09:56;98002.97;;;17.92;54.92
62025;BME280;47978;49.118;12.146;2023-05-08T10:13:59;98004.34;;;18.07;53.65
62025;BME280;47978;49.118;12.146;2023-05-08T10:18:03;97995.09;;;18.28;52.71
62025;BME280;47978;49.118;12.146;2023-05-08T10:22:07;98003.78;;;18.14;51.36
62025;BME280;47978;49.118;12.146;2023-05-08T10:26:13;97990.06;;;17.58;52.09
62025;BME280;47978;49.118;12.146;2023-05-08T10:30:23;97987.84;;;18.72;52.09
62025;BME280;47978;49.118;12.146;2023-05-08T10:34:26;97992.38;;;19.10;49.74
62025;BME280;47978;49.118;12.146;2023-05-08T10:38:29;97992.72;;;19.08;49.26
62025;BME280;47978;49.118;12.146;2023-05-08T10:42:31;97996.84;;;18.32;52.53
62025;BME280;47978;49.118;12.146;2023-05-08T10:46:39;97990.75;;;18.18;50.99
62025;BME280;47978;49.118;12.146;2023-05-08T10:50:57;97982.75;;;18.74;49.67
62025;BME280;47978;49.118;12.146;2023-05-08T10:55:21;97976.94;;;19.16;49.36
62025;BME280;47978;49.118;12.146;2023-05-08T10:59:23;97973.59;;;19.88;49.13
62025;BME280;47978;49.118;12.146;2023-05-08T11:03:27;97971.44;;;19.32;46.20
62025;BME280;47978;49.118;12.146;2023-05-08T11:07:54;97965.63;;;18.88;48.40
62025;BME280;47978;49.118;12.146;2023-05-08T11:12:07;97953.59;;;18.87;48.07
62025;BME280;47978;49.118;12.146;2023-05-08T11:16:09;97957.13;;;18.51;48.02
62025;BME280;47978;49.118;12.146;2023-05-08T11:20:12;97963.69;;;18.68;48.29
62025;BME280;47978;49.118;12.146;2023-05-08T11:24:14;97971.47;;;18.50;47.70
62025;BME280;47978;49.118;12.146;2023-05-08T11:28:16;97969.63;;;18.20;48.20
62025;BME280;47978;49.118;12.146;2023-05-08T11:32:17;97968.00;;;18.19;49.15
62025;BME280;47978;49.118;12.146;2023-05-08T11:36:21;97961.69;;;17.89;48.89
62025;BME280;47978;49.118;12.146;2023-05-08T11:40:43;97959.25;;;17.88;49.14
62025;BME280;47978;49.118;12.146;2023-05-08T11:44:45;97956.09;;;17.68;49.78
62025;BME280;47978;49.118;12.146;2023-05-08T11:48:47;97961.53;;;17.44;52.07
62025;BME280;47978;49.118;12.146;2023-05-08T11:52:50;97965.81;;;17.20;50.25
62025;BME280;47978;49.118;12.146;2023-05-08T11:56:52;97959.91;;;18.06;48.93
62025;BME280;47978;49.118;12.146;2023-05-08T12:00:56;97962.19;;;17.91;48.95
62025;BME280;47978;49.118;12.146;2023-05-08T12:04:58;97957.78;;;17.40;50.01
62025;BME280;47978;49.118;12.146;2023-05-08T12:09:01;97963.75;;;17.08;51.74
62025;BME280;47978;49.118;12.146;2023-05-08T12:13:14;97976.41;;;17.77;50.56
62025;BME280;47978;49.118;12.146;2023-05-08T12:17:16;97972.13;;;17.08;50.89
62025;BME280;47978;49.118;12.146;2023-05-08T12:21:18;97975.72;;;17.39;51.62
62025;BME280;47978;49.118;12.146;2023-05-08T12:25:22;97973.81;;;17.72;50.52
62025;BME280;47978;49.118;12.146;2023-05-08T12:29:25;97973.66;;;16.97;52.25
62025;BME280;47978;49.118;12.146;2023-05-08T12:33:27;97974.78;;;17.56;52.58
62025;BME280;47978;49.118;12.146;2023-05-08T12:37:29;97971.31;;;18.01;51.35
62025;BME280;47978;49.118;12.146;2023-05-08T12:41:32;97978.75;;;16.95;52.53
62025;BME280;47978;49.118;12.146;2023-05-08T12:45:36;97971.84;;;17.73;50.36
62025;BME280;47978;49.118;12.146;2023-05-08T12:49:37;97971.13;;;17.85;51.82
62025;BME280;47978;49.118;12.146;2023-05-08T12:53:39;97974.63;;;18.15;50.66
62025;BME280;47978;49.118;12.146;2023-05-08T12:57:42;97969.34;;;19.17;49.17
62025;BME280;47978;49.118;12.146;2023-05-08T13:01:49;97978.31;;;17.44;51.02
62025;BME280;47978;49.118;12.146;2023-05-08T13:05:51;97972.53;;;16.90;52.92
62025;BME280;47978;49.118;12.146;2023-05-08T13:09:57;97973.91;;;17.13;53.38
62025;BME280;47978;49.118;12.146;2023-05-08T13:14:00;97978.75;;;16.95;53.08
62025;BME280;47978;49.118;12.146;2023-05-08T13:18:02;97968.69;;;17.33;52.03
62025;BME280;47978;49.118;12.146;2023-05-08T13:22:04;97958.53;;;17.70;51.67
62025;BME280;47978;49.118;12.146;2023-05-08T13:26:05;97959.28;;;17.58;52.47
62025;BME280;47978;49.118;12.146;2023-05-08T13:30:09;97957.50;;;17.33;52.83
62025;BME280;47978;49.118;12.146;2023-05-08T13:34:12;97965.56;;;17.34;52.16
62025;BME280;47978;49.118;12.146;2023-05-08T13:38:13;97951.09;;;16.64;54.04
62025;BME280;47978;49.118;12.146;2023-05-08T13:42:15;97954.25;;;17.01;53.37
62025;BME280;47978;49.118;12.146;2023-05-08T13:46:18;97945.47;;;16.81;54.04
62025;BME280;47978;49.118;12.146;2023-05-08T13:50:19;97938.78;;;17.03;54.47
62025;BME280;47978;49.118;12.146;2023-05-08T13:54:21;97937.94;;;17.33;53.49
62025;BME280;47978;49.118;12.146;2023-05-08T13:58:23;97939.50;;;16.92;53.94
62025;BME280;47978;49.118;12.146;2023-05-08T14:02:26;97939.53;;;17.42;53.13
62025;BME280;47978;49.118;12.146;2023-05-08T14:06:28;97936.13;;;17.37;53.90
62025;BME280;47978;49.118;12.146;2023-05-08T14:10:29;97933.88;;;17.51;53.63
62025;BME280;47978;49.118;12.146;2023-05-08T14:14:31;97943.94;;;17.22;54.07
62025;BME280;47978;49.118;12.146;2023-05-08T14:18:36;97935.06;;;17.20;54.77
62025;BME280;47978;49.118;12.146;2023-05-08T14:22:37;97938.03;;;17.45;53.93
62025;BME280;47978;49.118;12.146;2023-05-08T14:26:39;97934.31;;;17.32;53.29
62025;BME280;47978;49.118;12.146;2023-05-08T14:30:40;97932.88;;;17.05;55.15
62025;BME280;47978;49.118;12.146;2023-05-08T14:34:43;97942.31;;;17.42;54.12
62025;BME280;47978;49.118;12.146;2023-05-08T14:38:45;97941.56;;;17.54;54.00
62025;BME280;47978;49.118;12.146;2023-05-08T14:42:46;97941.50;;;17.84;54.26
62025;BME280;47978;49.118;12.146;2023-05-08T14:46:48;97931.75;;;18.23;52.90
62025;BME280;47978;49.118;12.146;2023-05-08T14:50:51;97935.25;;;17.15;54.55
62025;BME280;47978;49.118;12.146;2023-05-08T14:54:53;97923.06;;;16.90;54.99
62025;BME280;47978;49.118;12.146;2023-05-08T14:58:54;97928.59;;;16.99;55.13
62025;BME280;47978;49.118;12.146;2023-05-08T15:02:56;97921.81;;;16.79;56.03
62025;BME280;47978;49.118;12.146;2023-05-08T15:06:59;97921.94;;;16.91;56.20
62025;BME280;47978;49.118;12.146;2023-05-08T15:11:02;97921.50;;;16.72;55.77
62025;BME280;47978;49.118;12.146;2023-05-08T15:15:04;97923.06;;;16.90;54.94
62025;BME280;47978;49.118;12.146;2023-05-08T15:19:06;97929.97;;;16.93;56.80
62025;BME280;47978;49.118;12.146;2023-05-08T15:23:09;97923.88;;;16.52;56.50
62025;BME280;47978;49.118;12.146;2023-05-08T15:27:10;97924.34;;;16.63;57.13
62025;BME280;47978;49.118;12.146;2023-05-08T15:31:12;97938.06;;;17.15;56.20
62025;BME280;47978;49.118;12.146;2023-05-08T15:35:14;97927.22;;;16.75;56.69
62025;BME280;47978;49.118;12.146;2023-05-08T15:39:17;97938.03;;;16.47;56.51
62025;BME280;47978;49.118;12.146;2023-05-08T15:43:18;97927.09;;;16.72;56.12
62025;BME280;47978;49.118;12.146;2023-05-08T15:47:20;97932.47;;;16.38;57.25
62025;BME280;47978;49.118;12.146;2023-05-08T15:51:21;97927.66;;;16.01;57.94
62025;BME280;47978;49.118;12.146;2023-05-08T15:55:24;97930.22;;;16.23;58.04
62025;BME280;47978;49.118;12.146;2023-05-08T15:59:26;97928.28;;;16.15;57.98
62025;BME280;47978;49.118;12.146;2023-05-08T16:03:27;97917.41;;;16.31;57.84
62025;BME280;47978;49.118;12.146;2023-05-08T16:07:29;97917.78;;;16.12;57.02
62025;BME280;47978;49.118;12.146;2023-05-08T16:11:32;97921.38;;;16.21;57.59
62025;BME280;47978;49.118;12.146;2023-05-08T16:15:33;97926.97;;;16.12;57.12
62025;BME280;47978;49.118;12.146;2023-05-08T16:19:38;97915.19;;;15.98;58.75
62025;BME280;47978;49.118;12.146;2023-05-08T16:23:40;97914.50;;;16.10;58.33
62025;BME280;47978;49.118;12.146;2023-05-08T16:27:43;97910.88;;;16.18;57.91
62025;BME280;47978;49.118;12.146;2023-05-08T16:31:44;97912.22;;;16.12;58.67
62025;BME280;47978;49.118;12.146;2023-05-08T16:35:46;97911.59;;;15.98;57.57
62025;BME280;47978;49.118;12.146;2023-05-08T16:39:47;97915.16;;;16.15;57.14
62025;BME280;47978;49.118;12.146;2023-05-08T16:43:50;97908.09;;;16.18;56.74
62025;BME280;47978;49.118;12.146;2023-05-08T16:47:52;97903.50;;;16.60;55.71
62025;BME280;47978;49.118;12.146;2023-05-08T16:51:54;97901.78;;;17.27;55.69
62025;BME280;47978;49.118;12.146;2023-05-08T16:55:55;97898.53;;;16.66;55.41
62025;BME280;47978;49.118;12.146;2023-05-08T16:59:58;97893.31;;;16.56;54.93
62025;BME280;47978;49.118;12.146;2023-05-08T17:04:00;97911.53;;;16.15;55.78
62025;BME280;47978;49.118;12.146;2023-05-08T17:08:01;97901.47;;;16.31;55.83
62025;BME280;47978;49.118;12.146;2023-05-08T17:12:03;97908.38;;;16.34;56.22
62025;BME280;47978;49.118;12.146;2023-05-08T17:16:06;97915.03;;;15.94;56.82
62025;BME280;47978;49.118;12.146;2023-05-08T17:20:09;97917.41;;;16.22;56.22
62025;BME280;47978;49.118;12.146;2023-05-08T17:24:11;97915.94;;;16.25;54.22
62025;BME280;47978;49.118;12.146;2023-05-08T17:28:12;97918.50;;;15.91;54.04
62025;BME280;47978;49.118;12.146;2023-05-08T17:32:15;97917.19;;;15.80;54.13
62025;BME280;47978;49.118;12.146;2023-05-08T17:36:17;97921.88;;;16.23;56.45
62025;BME280;47978;49.118;12.146;2023-05-08T17:40:18;97930.44;;;16.09;54.99
62025;BME280;47978;49.118;12.146;2023-05-08T17:44:20;97931.28;;;15.58;59.21
62025;BME280;47978;49.118;12.146;2023-05-08T17:48:23;97930.13;;;15.93;57.94
62025;BME280;47978;49.118;12.146;2023-05-08T17:52:24;97938.50;;;15.76;57.39
62025;BME280;47978;49.118;12.146;2023-05-08T17:56:26;97930.13;;;15.85;53.67
62025;BME280;47978;49.118;12.146;2023-05-08T18:00:28;97937.00;;;15.26;58.10
62025;BME280;47978;49.118;12.146;2023-05-08T18:04:31;97933.91;;;15.63;59.26
62025;BME280;47978;49.118;12.146;2023-05-08T18:08:33;97947.00;;;15.45;60.51
62025;BME280;47978;49.118;12.146;2023-05-08T18:12:34;97937.16;;;15.47;61.16
62025;BME280;47978;49.118;12.146;2023-05-08T18:16:36;97937.09;;;14.87;61.98
62025;BME280;47978;49.118;12.146;2023-05-08T18:20:39;97945.97;;;14.97;63.24
62025;BME280;47978;49.118;12.146;2023-05-08T18:24:40;97948.78;;;14.57;64.78
62025;BME280;47978;49.118;12.146;2023-05-08T18:28:43;97944.28;;;14.48;63.70
62025;BME280;47978;49.118;12.146;2023-05-08T18:32:45;97951.34;;;14.23;65.75
62025;BME280;47978;49.118;12.146;2023-05-08T18:36:48;97956.25;;;14.26;65.19
62025;BME280;47978;49.118;12.146;2023-05-08T18:40:50;97952.50;;;13.99;67.32
62025;BME280;47978;49.118;12.146;2023-05-08T18:44:53;97951.06;;;13.79;64.11
62025;BME280;47978;49.118;12.146;2023-05-08T18:48:54;97951.56;;;14.04;65.12
62025;BME280;47978;49.118;12.146;2023-05-08T18:52:57;97965.41;;;13.72;65.00
62025;BME280;47978;49.118;12.146;2023-05-08T18:56:59;97969.13;;;13.32;67.40
62025;BME280;47978;49.118;12.146;2023-05-08T19:01:00;97974.91;;;13.08;67.72
62025;BME280;47978;49.118;12.146;2023-05-08T19:05:02;97979.41;;;13.17;67.98
62025;BME280;47978;49.118;12.146;2023-05-08T19:09:05;97977.50;;;12.90;69.22
62025;BME280;47978;49.118;12.146;2023-05-08T19:13:06;97977.81;;;12.75;70.52
62025;BME280;47978;49.118;12.146;2023-05-08T19:17:08;97984.19;;;12.89;71.23
62025;BME280;47978;49.118;12.146;2023-05-08T19:21:10;97984.88;;;13.22;71.81
62025;BME280;47978;49.118;12.146;2023-05-08T19:25:13;97977.72;;;12.80;73.03
62025;BME280;47978;49.118;12.146;2023-05-08T19:29:14;97979.25;;;12.86;74.01
62025;BME280;47978;49.118;12.146;2023-05-08T19:33:16;97985.41;;;12.69;74.02
62025;BME280;47978;49.118;12.146;2023-05-08T19:37:17;97983.03;;;12.49;73.56
62025;BME280;47978;49.118;12.146;2023-05-08T19:41:20;97973.59;;;12.50;73.71
62025;BME280;47978;49.118;12.146;2023-05-08T19:45:22;97984.31;;;12.24;75.24
62025;BME280;47978;49.118;12.146;2023-05-08T19:49:23;97988.56;;;12.21;75.56
62025;BME280;47978;49.118;12.146;2023-05-08T19:53:25;97983.63;;;12.32;75.53
62025;BME280;47978;49.118;12.146;2023-05-08T19:57:28;97994.66;;;12.04;75.66
62025;BME280;47978;49.118;12.146;2023-05-08T20:01:29;97991.84;;;11.90;76.38
62025;BME280;47978;49.118;12.146;2023-05-08T20:05:31;97994.81;;;11.75;77.18
62025;BME280;47978;49.118;12.146;2023-05-08T20:09:32;97991.41;;;11.45;78.56
62025;BME280;47978;49.118;12.146;2023-05-08T20:13:35;98001.88;;;11.30;79.35
62025;BME280;47978;49.118;12.146;2023-05-08T20:17:37;97992.75;;;11.10;80.18
62025;BME280;47978;49.118;12.146;2023-05-08T20:21:39;97995.09;;;10.98;81.49
62025;BME280;47978;49.118;12.146;2023-05-08T20:25:40;97997.09;;;10.92;81.70
62025;BME280;47978;49.118;12.146;2023-05-08T20:29:43;97996.59;;;10.90;81.77
62025;BME280;47978;49.118;12.146;2023-05-08T20:33:45;97997.41;;;10.91;81.89
62025;BME280;47978;49.118;12.146;2023-05-08T20:37:46;97992.81;;;10.81;81.74
62025;BME280;47978;49.118;12.146;2023-05-08T20:41:48;97989.47;;;10.84;82.05
62025;BME280;47978;49.118;12.146;2023-05-08T20:45:51;97987.94;;;10.73;82.61
62025;BME280;47978;49.118;12.146;2023-05-08T20:49:52;97992.25;;;10.60;82.70
62025;BME280;47978;49.118;12.146;2023-05-08T20:53:54;97980.38;;;10.60;82.86
62025;BME280;47978;49.118;12.146;2023-05-08T20:57:55;97978.69;;;10.58;82.69
62025;BME280;47978;49.118;12.146;2023-05-08T21:01:58;97971.25;;;10.59;81.81
62025;BME280;47978;49.118;12.146;2023-05-08T21:06:00;97974.53;;;10.61;81.92
62025;BME280;47978;49.118;12.146;2023-05-08T21:10:03;97970.66;;;10.62;81.88
62025;BME280;47978;49.118;12.146;2023-05-08T21:14:04;97968.94;;;10.66;82.23
62025;BME280;47978;49.118;12.146;2023-05-08T21:18:07;97973.66;;;10.66;81.76
62025;BME280;47978;49.118;12.146;2023-05-08T21:22:09;97972.25;;;10.68;81.99